Portada
METAR-TAF:

METAR-TAF

Aeroports :

Lanzhou, Xina

latitud: 36-02N, longitud: 103-52E, altitud: 1518 m

Observació

L'informe es va fer fa 49 minuts, a les 23:00 UTC
Vent 6 kt del Sud
Temperatura 2°C
Humitat 35%
Pressió 1022 hPa
Visibilitat 10 km o més
sense núvols per sota de 1500 mi sense presència de cumulonimbus.

METAR: ZLLL 262300Z 19003MPS CAVOK 02/M12 Q1022 NOSIG

Hora: 07:49 (23:49 UTC)

Pronòstic

L'informe es va fer fa 2 hores i 43 minuts, a les 21:06 UTC
Pronòstic vàlid del 27 a les 00 UTC al 27 a les 24 UTC
Vent 6 kt del Sud
Visibilitat: 6000 m
Núvols disperses a una alçada de 4000 ft
Temporalment
l' 27 a les 00 UTC al 27 a les 06 UTC
Visibilitat: 4000 m
neu, pluja

TAF: ZLLL 262106Z 2700/2724 18003MPS 6000 SCT040 TX08/2708Z TNM08/2723Z TEMPO 2700/2706 4000 -SNRA

Observacions i pronòstics meteorològics de més de 4000 aeroports (METAR i TAF).

Les estacions disponibles són els punts grocs i vermells al mapa.

Posi el ratolí al punt desitjat per veure el nom de l'estació.

Feu clic per veure les observacions i els pronòstics meteorològics.

Per canviar el mapa: feu clic els botons verds amb una creu de color negre per apropar; al botó verd amb un guió per allunyar la imatge; o en les fletxes verdes per a mapes adjacents.


METAR-TAF: